Ionia, MI

12:03 AM EDT on June 25, 2017 (GMT -0400)
Ionia

Weather History for KY70 - October, 2013

Change the Weather History Date:

Wednesday, October 23, 2013

  Actual Average (KGRR) Record (KGRR)
Temperature  
Mean Temperature 38 °F -  
Max Temperature 46 °F 58 °F 83 °F (1963)
Min Temperature 31 °F 38 °F 19 °F (1969)
Degree Days  
Heating Degree Days 26    
Moisture  
Dew Point 31 °F    
Average Humidity 79    
Maximum Humidity 96    
Minimum Humidity 46    
Precipitation  
Precipitation 0.00 in - - ()
Sea Level Pressure  
Sea Level Pressure 29.88 in    
Wind  
Wind Speed 5 mph (WNW)    
Max Wind Speed 15 mph    
Max Gust Speed 20 mph    
Visibility 10 miles    
Events      
Averages and records for this station are not official NWS values.
T = Trace of Precipitation, MM = Missing Value Source: NWS Daily Summary

Daily Weather History Graph

Daily Weather History Graph

Search for Another Location

Airport or City:

Trip Planner

Search our weather history database for the weather conditions in past years. The results will help you decide how hot, cold, wet, or windy it might be!

Date:

Astronomy

Oct. 23, 2013 Rise Set
Actual Time 8:03 AM EDT 6:44 PM EDT
Civil Twilight 7:34 AM EDT 7:13 PM EDT
Nautical Twilight 7:01 AM EDT 7:46 PM EDT
Astronomical Twilight 6:28 AM EDT 8:19 PM EDT
Moon 10:11 PM EDT (10/23) 12:23 PM EDT (10/23)
Length of Visible Light 11h 38m
Length of Day
10h 41m
Waning Gibbous, 79% of the Moon is Illuminated
Oct 23
Waning Gibbous
Oct 26
Last Quarter
Nov 3
New
Nov 10
First Quarter
Nov 17
Full

Hourly Weather History & Observations

Time (EDT) Temp. Windchill Dew Point Humidity Pressure Visibility Wind Dir Wind Speed Gust Speed Precip Events Conditions
12:14 AM 37.8 °F 34.2 °F 32.4 °F 81% 29.86 in 10.0 mi West 4.6 mph - N/A   Scattered Clouds
12:34 AM 37.4 °F 34.9 °F 32.0 °F 81% 29.86 in 10.0 mi WSW 3.5 mph - N/A   Scattered Clouds
12:54 AM 37.4 °F 34.9 °F 32.0 °F 81% 29.86 in 10.0 mi West 3.5 mph - N/A   Clear
1:14 AM 35.8 °F - 31.3 °F 84% 29.86 in 10.0 mi Calm Calm - N/A   Clear
1:34 AM 34.9 °F 32.0 °F 32.2 °F 90% 29.85 in 10.0 mi WNW 3.5 mph - N/A   Clear
1:54 AM 35.1 °F 32.2 °F 32.0 °F 89% 29.85 in 10.0 mi WNW 3.5 mph - N/A   Clear
2:14 AM 35.6 °F 31.7 °F 32.0 °F 87% 29.85 in 10.0 mi West 4.6 mph - N/A   Clear
2:34 AM 34.2 °F 29.0 °F 32.0 °F 92% 29.85 in 10.0 mi WNW 5.8 mph - N/A   Scattered Clouds
2:54 AM 34.2 °F 29.0 °F 31.8 °F 91% 29.85 in 10.0 mi WNW 5.8 mph - N/A   Scattered Clouds
3:14 AM 34.0 °F 28.8 °F 32.0 °F 92% 29.85 in 10.0 mi WNW 5.8 mph - N/A   Mostly Cloudy
3:34 AM 34.7 °F 30.6 °F 32.2 °F 91% 29.84 in 10.0 mi NW 4.6 mph - N/A   Overcast
3:54 AM 35.2 °F 32.4 °F 32.7 °F 91% 29.84 in 10.0 mi NW 3.5 mph - N/A   Overcast
4:14 AM 34.0 °F - 32.0 °F 92% 29.84 in 10.0 mi Calm Calm - N/A   Scattered Clouds
4:34 AM 33.1 °F 30.0 °F 32.0 °F 96% 29.83 in 10.0 mi NNW 3.5 mph - N/A   Clear
4:54 AM 32.9 °F - 32.0 °F 96% 29.83 in 10.0 mi Calm Calm - N/A   Clear
5:14 AM 33.3 °F 30.2 °F 32.2 °F 96% 29.84 in 10.0 mi NNW 3.5 mph - N/A   Mostly Cloudy
5:34 AM 33.3 °F 30.2 °F 32.4 °F 96% 29.84 in 10.0 mi NW 3.5 mph - N/A   Mostly Cloudy
5:54 AM 33.8 °F 29.6 °F 32.9 °F 96% 29.84 in 10.0 mi NW 4.6 mph - N/A   Mostly Cloudy
6:14 AM 33.6 °F - 32.2 °F 94% 29.84 in 10.0 mi Calm Calm - N/A   Overcast
6:34 AM 33.8 °F - 32.7 °F 96% 29.84 in 10.0 mi Calm Calm - N/A   Overcast
6:54 AM 33.8 °F 29.6 °F 32.9 °F 96% 29.84 in 10.0 mi NW 4.6 mph - N/A   Mostly Cloudy
7:14 AM 33.4 °F 29.1 °F 32.4 °F 96% 29.85 in 10.0 mi WNW 4.6 mph - N/A   Mostly Cloudy
7:34 AM 33.4 °F 29.1 °F 32.4 °F 96% 29.86 in 10.0 mi WNW 4.6 mph - N/A   Mostly Cloudy
7:54 AM 33.1 °F 30.0 °F 32.2 °F 96% 29.86 in 10.0 mi NW 3.5 mph - N/A   Overcast
8:14 AM 32.9 °F 29.8 °F 32.0 °F 96% 29.87 in 10.0 mi NW 3.5 mph - N/A   Overcast
8:34 AM 34.2 °F - 33.1 °F 96% 29.87 in 10.0 mi Calm Calm - N/A   Overcast
8:54 AM 34.9 °F 32.0 °F 33.4 °F 94% 29.87 in 10.0 mi WNW 3.5 mph - N/A   Overcast
9:14 AM 35.6 °F 32.8 °F 34.0 °F 94% 29.88 in 10.0 mi West 3.5 mph - N/A   Overcast
9:34 AM 36.0 °F 33.3 °F 34.3 °F 94% 29.88 in 10.0 mi West 3.5 mph - N/A   Mostly Cloudy
9:54 AM 37.6 °F 34.0 °F 35.4 °F 92% 29.88 in 10.0 mi NW 4.6 mph - N/A   Overcast
10:14 AM 37.6 °F 35.1 °F 34.5 °F 89% 29.89 in 10.0 mi NW 3.5 mph - N/A   Mostly Cloudy
10:34 AM 38.3 °F - 34.9 °F 87% 29.88 in 10.0 mi Calm Calm - N/A   Scattered Clouds
10:54 AM 41.2 °F 39.2 °F 34.0 °F 76% 29.88 in 10.0 mi NW 3.5 mph - N/A   Mostly Cloudy
11:14 AM 41.0 °F - 33.1 °F 73% 29.88 in 10.0 mi Calm Calm - N/A   Overcast
11:34 AM 42.1 °F 39.2 °F 32.2 °F 68% 29.88 in 10.0 mi NW 4.6 mph - N/A   Mostly Cloudy
11:54 AM 43.3 °F 39.9 °F 29.7 °F 59% 29.88 in 10.0 mi North 5.8 mph - N/A   Scattered Clouds
12:14 PM 43.5 °F 39.4 °F 29.8 °F 59% 29.88 in 10.0 mi NW 6.9 mph - N/A   Clear
12:34 PM 43.7 °F - 28.4 °F 55% 29.88 in 10.0 mi Calm Calm - N/A   Mostly Cloudy
12:54 PM 43.2 °F 37.9 °F 27.9 °F 55% 29.88 in 10.0 mi NNW 9.2 mph - N/A   Overcast
1:14 PM 43.7 °F 39.1 °F 28.4 °F 55% 29.88 in 10.0 mi NNW 8.1 mph - N/A   Overcast
1:34 PM 43.9 °F 39.3 °F 28.6 °F 55% 29.87 in 10.0 mi WNW 8.1 mph - N/A   Overcast
1:54 PM 45.5 °F 39.9 °F 27.5 °F 49% 29.87 in 10.0 mi WNW 11.5 mph - N/A   Mostly Cloudy
2:14 PM 46.0 °F 41.0 °F 28.4 °F 50% 29.86 in 10.0 mi WNW 10.4 mph 16.1 mph N/A   Scattered Clouds
2:34 PM 45.0 °F 39.7 °F 29.3 °F 54% 29.87 in 10.0 mi NNW 10.4 mph 18.4 mph N/A   Mostly Cloudy
2:54 PM 42.8 °F 38.0 °F 30.6 °F 62% 29.86 in 10.0 mi WNW 8.1 mph - N/A   Mostly Cloudy
3:14 PM 44.6 °F 39.7 °F 31.1 °F 59% 29.86 in 10.0 mi WNW 9.2 mph - N/A   Overcast
3:34 PM 42.8 °F 36.6 °F 28.9 °F 58% 29.86 in 10.0 mi NNW 11.5 mph 18.4 mph N/A   Overcast
3:54 PM 41.7 °F 37.3 °F 28.4 °F 59% 29.87 in 10.0 mi NNW 6.9 mph - N/A   Overcast
4:14 PM 43.0 °F 38.2 °F 28.2 °F 56% 29.87 in 10.0 mi WNW 8.1 mph - N/A   Mostly Cloudy
4:34 PM 44.1 °F 37.4 °F 26.6 °F 50% 29.87 in 10.0 mi WNW 13.8 mph 17.3 mph N/A   Scattered Clouds
4:54 PM 43.5 °F 36.4 °F 27.5 °F 53% 29.88 in 10.0 mi WNW 15.0 mph 19.6 mph N/A   Mostly Cloudy
5:14 PM 43.3 °F 36.8 °F 27.0 °F 52% 29.88 in 10.0 mi WNW 12.7 mph - N/A   Overcast
5:34 PM 43.5 °F 37.5 °F 23.7 °F 46% 29.88 in 10.0 mi West 11.5 mph 16.1 mph N/A   Mostly Cloudy
5:54 PM 43.3 °F 36.5 °F 25.7 °F 50% 29.89 in 10.0 mi NW 13.8 mph 18.4 mph N/A   Overcast
6:14 PM 42.4 °F 37.0 °F 25.5 °F 51% 29.89 in 10.0 mi WNW 9.2 mph - N/A   Mostly Cloudy
6:34 PM 41.4 °F 36.2 °F 25.5 °F 53% 29.89 in 10.0 mi NW 8.1 mph - N/A   Scattered Clouds
6:54 PM 39.6 °F 35.4 °F 25.9 °F 58% 29.89 in 10.0 mi WNW 5.8 mph - N/A   Scattered Clouds
7:14 PM 36.9 °F 29.6 °F 30.9 °F 79% 29.90 in 10.0 mi WSW 10.4 mph - N/A   Scattered Clouds
7:34 PM 36.5 °F 29.7 °F 30.0 °F 77% 29.91 in 10.0 mi West 9.2 mph - N/A   Clear
7:54 PM 35.6 °F 28.6 °F 30.0 °F 80% 29.92 in 10.0 mi West 9.2 mph - N/A   Clear
8:14 PM 34.9 °F 27.7 °F 29.8 °F 82% 29.92 in 10.0 mi West 9.2 mph - N/A   Clear
8:34 PM 34.2 °F 26.8 °F 30.2 °F 85% 29.92 in 10.0 mi West 9.2 mph - N/A   Clear
8:54 PM 33.8 °F 27.0 °F 30.6 °F 88% 29.92 in 10.0 mi West 8.1 mph - N/A   Scattered Clouds
9:14 PM 34.3 °F 28.4 °F 30.9 °F 87% 29.92 in 10.0 mi West 6.9 mph - N/A   Mostly Cloudy
9:34 PM 32.0 °F 26.4 °F 29.7 °F 91% 29.92 in 10.0 mi West 5.8 mph - N/A   Scattered Clouds
9:54 PM 31.6 °F 25.1 °F 29.3 °F 91% 29.92 in 10.0 mi WSW 6.9 mph - N/A   Clear
10:14 PM 32.0 °F 27.5 °F 30.7 °F 95% 29.92 in 10.0 mi WSW 4.6 mph - N/A   Scattered Clouds
10:34 PM 32.4 °F 27.9 °F 30.9 °F 94% 29.92 in 10.0 mi West 4.6 mph - N/A   Scattered Clouds
10:54 PM 31.6 °F 25.1 °F 29.8 °F 93% 29.92 in 10.0 mi WSW 6.9 mph - N/A   Clear
11:14 PM 32.0 °F 24.8 °F 30.2 °F 93% 29.92 in 10.0 mi West 8.1 mph - N/A   Scattered Clouds
11:34 PM 31.6 °F 26.0 °F 29.8 °F 93% 29.92 in 10.0 mi WSW 5.8 mph - N/A   Scattered Clouds
11:54 PM 32.0 °F 24.8 °F 30.2 °F 93% 29.93 in 10.0 mi West 8.1 mph - N/A   Clear